sensor_id;sensor_type;location;lat;lon;timestamp;pressure;altitude;pressure_sealevel;temperature;humidity
29467;BME280;60968;37.490;-122.288;2023-03-11T00:02:35;98363.19;;;11.79;100.00
29467;BME280;60968;37.490;-122.288;2023-03-11T00:05:38;98368.53;;;11.74;100.00
29467;BME280;60968;37.490;-122.288;2023-03-11T00:08:40;98364.28;;;11.72;100.00
29467;BME280;60968;37.490;-122.288;2023-03-11T00:11:40;98359.44;;;11.88;100.00
29467;BME280;60968;37.490;-122.288;2023-03-11T00:14:41;98363.00;;;11.85;100.00
29467;BME280;60968;37.490;-122.288;2023-03-11T00:17:42;98376.91;;;11.86;100.00
29467;BME280;60968;37.490;-122.288;2023-03-11T00:20:45;98382.16;;;11.86;100.00
29467;BME280;60968;37.490;-122.288;2023-03-11T00:23:46;98380.78;;;11.72;100.00
29467;BME280;60968;37.490;-122.288;2023-03-11T00:26:47;98376.69;;;11.63;100.00
29467;BME280;60968;37.490;-122.288;2023-03-11T00:29:48;98376.09;;;11.54;100.00
29467;BME280;60968;37.490;-122.288;2023-03-11T00:32:50;98382.47;;;11.42;100.00
29467;BME280;60968;37.490;-122.288;2023-03-11T00:35:51;98378.22;;;11.39;100.00
29467;BME280;60968;37.490;-122.288;2023-03-11T00:38:52;98381.88;;;11.33;100.00
29467;BME280;60968;37.490;-122.288;2023-03-11T00:41:53;98386.38;;;11.27;100.00
29467;BME280;60968;37.490;-122.288;2023-03-11T00:44:54;98390.84;;;11.22;100.00
29467;BME280;60968;37.490;-122.288;2023-03-11T00:47:55;98389.94;;;11.24;100.00
29467;BME280;60968;37.490;-122.288;2023-03-11T00:50:57;98389.97;;;11.23;100.00
29467;BME280;60968;37.490;-122.288;2023-03-11T00:53:58;98390.78;;;11.25;100.00
29467;BME280;60968;37.490;-122.288;2023-03-11T00:56:59;98383.41;;;11.08;100.00
29467;BME280;60968;37.490;-122.288;2023-03-11T00:59:59;98377.78;;;11.23;100.00
29467;BME280;60968;37.490;-122.288;2023-03-11T01:03:00;98381.63;;;11.41;100.00
29467;BME280;60968;37.490;-122.288;2023-03-11T01:06:01;98388.34;;;11.50;100.00
29467;BME280;60968;37.490;-122.288;2023-03-11T01:09:02;98391.13;;;11.44;100.00
29467;BME280;60968;37.490;-122.288;2023-03-11T01:12:03;98397.56;;;11.30;100.00
29467;BME280;60968;37.490;-122.288;2023-03-11T01:15:06;98396.81;;;11.27;100.00
29467;BME280;60968;37.490;-122.288;2023-03-11T01:18:07;98385.81;;;11.15;100.00
29467;BME280;60968;37.490;-122.288;2023-03-11T01:21:08;98386.00;;;11.08;100.00
29467;BME280;60968;37.490;-122.288;2023-03-11T01:24:08;98387.19;;;10.96;100.00
29467;BME280;60968;37.490;-122.288;2023-03-11T01:27:09;98406.78;;;10.76;100.00
29467;BME280;60968;37.490;-122.288;2023-03-11T01:30:14;98402.00;;;10.59;100.00
29467;BME280;60968;37.490;-122.288;2023-03-11T01:33:18;98390.19;;;10.44;100.00
29467;BME280;60968;37.490;-122.288;2023-03-11T01:36:19;98386.16;;;10.29;100.00
29467;BME280;60968;37.490;-122.288;2023-03-11T01:39:19;98380.31;;;10.18;100.00
29467;BME280;60968;37.490;-122.288;2023-03-11T01:42:20;98385.91;;;10.03;100.00
29467;BME280;60968;37.490;-122.288;2023-03-11T01:48:37;98397.06;;;9.66;100.00
29467;BME280;60968;37.490;-122.288;2023-03-11T01:51:40;98408.03;;;9.36;100.00
29467;BME280;60968;37.490;-122.288;2023-03-11T01:54:42;98394.56;;;9.16;100.00
29467;BME280;60968;37.490;-122.288;2023-03-11T01:57:44;98400.91;;;8.99;100.00
29467;BME280;60968;37.490;-122.288;2023-03-11T02:00:46;98388.13;;;8.87;100.00
29467;BME280;60968;37.490;-122.288;2023-03-11T02:03:47;98397.88;;;8.74;100.00
29467;BME280;60968;37.490;-122.288;2023-03-11T02:06:48;98396.25;;;8.67;100.00
29467;BME280;60968;37.490;-122.288;2023-03-11T02:09:50;98399.75;;;8.64;100.00
29467;BME280;60968;37.490;-122.288;2023-03-11T02:12:51;98392.97;;;8.55;100.00
29467;BME280;60968;37.490;-122.288;2023-03-11T02:15:52;98381.72;;;8.55;100.00
29467;BME280;60968;37.490;-122.288;2023-03-11T02:18:53;98389.59;;;8.50;100.00
29467;BME280;60968;37.490;-122.288;2023-03-11T02:21:55;98412.19;;;8.42;100.00
29467;BME280;60968;37.490;-122.288;2023-03-11T02:25:02;98401.03;;;8.34;100.00
29467;BME280;60968;37.490;-122.288;2023-03-11T02:28:09;98400.31;;;8.27;100.00
29467;BME280;60968;37.490;-122.288;2023-03-11T02:31:11;98406.47;;;8.18;100.00
29467;BME280;60968;37.490;-122.288;2023-03-11T02:34:22;98415.25;;;8.10;100.00
29467;BME280;60968;37.490;-122.288;2023-03-11T02:37:23;98417.91;;;8.05;100.00
29467;BME280;60968;37.490;-122.288;2023-03-11T02:43:45;98418.78;;;8.02;100.00
29467;BME280;60968;37.490;-122.288;2023-03-11T02:46:46;98425.78;;;7.96;100.00
29467;BME280;60968;37.490;-122.288;2023-03-11T02:49:47;98418.09;;;7.89;100.00
29467;BME280;60968;37.490;-122.288;2023-03-11T02:52:49;98427.63;;;7.87;100.00
29467;BME280;60968;37.490;-122.288;2023-03-11T02:55:50;98433.66;;;7.89;100.00
29467;BME280;60968;37.490;-122.288;2023-03-11T02:58:53;98433.69;;;7.88;100.00
29467;BME280;60968;37.490;-122.288;2023-03-11T03:01:54;98429.44;;;7.82;100.00
29467;BME280;60968;37.490;-122.288;2023-03-11T03:04:54;98433.75;;;7.83;100.00
29467;BME280;60968;37.490;-122.288;2023-03-11T03:07:55;98433.72;;;7.85;100.00
29467;BME280;60968;37.490;-122.288;2023-03-11T03:10:56;98435.44;;;7.84;100.00
29467;BME280;60968;37.490;-122.288;2023-03-11T03:13:58;98435.47;;;7.83;100.00
29467;BME280;60968;37.490;-122.288;2023-03-11T03:16:59;98430.34;;;7.80;100.00
29467;BME280;60968;37.490;-122.288;2023-03-11T03:20:00;98421.69;;;7.78;100.00
29467;BME280;60968;37.490;-122.288;2023-03-11T03:23:02;98432.06;;;7.78;100.00
29467;BME280;60968;37.490;-122.288;2023-03-11T03:26:04;98432.97;;;7.77;100.00
29467;BME280;60968;37.490;-122.288;2023-03-11T03:29:07;98432.00;;;7.84;100.00
29467;BME280;60968;37.490;-122.288;2023-03-11T03:32:08;98431.88;;;7.96;100.00
29467;BME280;60968;37.490;-122.288;2023-03-11T03:35:09;98424.72;;;8.12;100.00
29467;BME280;60968;37.490;-122.288;2023-03-11T03:38:11;98416.81;;;8.21;100.00
29467;BME280;60968;37.490;-122.288;2023-03-11T03:41:15;98421.94;;;8.26;100.00
29467;BME280;60968;37.490;-122.288;2023-03-11T03:44:17;98433.16;;;8.27;100.00
29467;BME280;60968;37.490;-122.288;2023-03-11T03:47:18;98431.47;;;8.24;100.00
29467;BME280;60968;37.490;-122.288;2023-03-11T03:50:19;98423.72;;;8.22;100.00
29467;BME280;60968;37.490;-122.288;2023-03-11T03:53:21;98440.16;;;8.23;100.00
29467;BME280;60968;37.490;-122.288;2023-03-11T03:56:22;98449.63;;;8.27;100.00
29467;BME280;60968;37.490;-122.288;2023-03-11T03:59:23;98460.66;;;8.41;100.00
29467;BME280;60968;37.490;-122.288;2023-03-11T04:02:23;98465.78;;;8.48;100.00
29467;BME280;60968;37.490;-122.288;2023-03-11T04:05:26;98466.69;;;8.42;100.00
29467;BME280;60968;37.490;-122.288;2023-03-11T04:08:27;98461.47;;;8.44;100.00
29467;BME280;60968;37.490;-122.288;2023-03-11T04:11:28;98453.69;;;8.44;100.00
29467;BME280;60968;37.490;-122.288;2023-03-11T04:14:28;98439.88;;;8.45;100.00
29467;BME280;60968;37.490;-122.288;2023-03-11T04:17:29;98438.13;;;8.45;100.00
29467;BME280;60968;37.490;-122.288;2023-03-11T04:20:30;98435.53;;;8.47;100.00
29467;BME280;60968;37.490;-122.288;2023-03-11T04:23:31;98453.59;;;8.53;100.00
29467;BME280;60968;37.490;-122.288;2023-03-11T04:26:32;98458.75;;;8.56;100.00
29467;BME280;60968;37.490;-122.288;2023-03-11T04:29:33;98471.72;;;8.56;100.00
29467;BME280;60968;37.490;-122.288;2023-03-11T04:32:34;98466.50;;;8.57;100.00
29467;BME280;60968;37.490;-122.288;2023-03-11T04:35:37;98483.75;;;8.62;100.00
29467;BME280;60968;37.490;-122.288;2023-03-11T04:38:38;98492.41;;;8.64;100.00
29467;BME280;60968;37.490;-122.288;2023-03-11T04:41:39;98497.59;;;8.64;100.00
29467;BME280;60968;37.490;-122.288;2023-03-11T04:44:40;98488.91;;;8.65;100.00
29467;BME280;60968;37.490;-122.288;2023-03-11T04:47:41;98495.81;;;8.66;100.00
29467;BME280;60968;37.490;-122.288;2023-03-11T04:50:42;98496.66;;;8.69;100.00
29467;BME280;60968;37.490;-122.288;2023-03-11T04:53:43;98498.41;;;8.66;100.00
29467;BME280;60968;37.490;-122.288;2023-03-11T04:56:43;98497.59;;;8.64;100.00
29467;BME280;60968;37.490;-122.288;2023-03-11T04:59:44;98498.44;;;8.64;100.00
29467;BME280;60968;37.490;-122.288;2023-03-11T05:02:45;98501.00;;;8.67;100.00
29467;BME280;60968;37.490;-122.288;2023-03-11T05:05:47;98499.28;;;8.65;100.00
29467;BME280;60968;37.490;-122.288;2023-03-11T05:08:48;98507.06;;;8.66;100.00
29467;BME280;60968;37.490;-122.288;2023-03-11T05:11:50;98503.53;;;8.70;100.00
29467;BME280;60968;37.490;-122.288;2023-03-11T05:14:51;98500.94;;;8.70;100.00
29467;BME280;60968;37.490;-122.288;2023-03-11T05:17:52;98503.53;;;8.73;100.00
29467;BME280;60968;37.490;-122.288;2023-03-11T05:20:53;98515.63;;;8.73;100.00
29467;BME280;60968;37.490;-122.288;2023-03-11T05:23:53;98516.47;;;8.77;100.00
29467;BME280;60968;37.490;-122.288;2023-03-11T05:26:55;98512.06;;;8.80;100.00
29467;BME280;60968;37.490;-122.288;2023-03-11T05:29:56;98522.34;;;8.88;100.00
29467;BME280;60968;37.490;-122.288;2023-03-11T05:32:57;98525.78;;;8.90;100.00
29467;BME280;60968;37.490;-122.288;2023-03-11T05:36:06;98521.38;;;8.95;100.00
29467;BME280;60968;37.490;-122.288;2023-03-11T05:39:07;98523.91;;;8.98;100.00
29467;BME280;60968;37.490;-122.288;2023-03-11T05:42:08;98523.91;;;8.98;100.00
29467;BME280;60968;37.490;-122.288;2023-03-11T05:45:09;98522.19;;;8.97;100.00
29467;BME280;60968;37.490;-122.288;2023-03-11T05:48:10;98520.50;;;8.96;100.00
29467;BME280;60968;37.490;-122.288;2023-03-11T05:51:12;98525.63;;;9.01;100.00
29467;BME280;60968;37.490;-122.288;2023-03-11T05:54:15;98522.13;;;9.03;100.00
29467;BME280;60968;37.490;-122.288;2023-03-11T05:57:17;98519.53;;;9.02;100.00
29467;BME280;60968;37.490;-122.288;2023-03-11T06:00:18;98522.97;;;9.04;100.00
29467;BME280;60968;37.490;-122.288;2023-03-11T06:03:19;98523.00;;;9.02;100.00
29467;BME280;60968;37.490;-122.288;2023-03-11T06:06:20;98533.38;;;9.02;100.00
29467;BME280;60968;37.490;-122.288;2023-03-11T06:09:21;98531.66;;;9.01;100.00
29467;BME280;60968;37.490;-122.288;2023-03-11T06:12:22;98532.56;;;9.00;100.00
29467;BME280;60968;37.490;-122.288;2023-03-11T06:15:23;98532.56;;;9.00;100.00
29467;BME280;60968;37.490;-122.288;2023-03-11T06:18:27;98538.56;;;9.02;100.00
29467;BME280;60968;37.490;-122.288;2023-03-11T06:21:28;98542.06;;;9.01;100.00
29467;BME280;60968;37.490;-122.288;2023-03-11T06:24:28;98555.91;;;9.03;100.00
29467;BME280;60968;37.490;-122.288;2023-03-11T06:27:29;98561.16;;;9.00;100.00
29467;BME280;60968;37.490;-122.288;2023-03-11T06:30:30;98564.69;;;8.95;100.00
29467;BME280;60968;37.490;-122.288;2023-03-11T06:33:31;98557.81;;;8.90;100.00
29467;BME280;60968;37.490;-122.288;2023-03-11T06:36:32;98561.47;;;8.77;100.00
29467;BME280;60968;37.490;-122.288;2023-03-11T06:39:33;98562.53;;;8.64;100.00
29467;BME280;60968;37.490;-122.288;2023-03-11T06:42:34;98567.00;;;8.51;100.00
29467;BME280;60968;37.490;-122.288;2023-03-11T06:45:35;98558.41;;;8.47;100.00
29467;BME280;60968;37.490;-122.288;2023-03-11T06:48:36;98566.22;;;8.44;100.00
29467;BME280;60968;37.490;-122.288;2023-03-11T06:51:37;98568.88;;;8.38;100.00
29467;BME280;60968;37.490;-122.288;2023-03-11T06:54:38;98574.09;;;8.35;100.00
29467;BME280;60968;37.490;-122.288;2023-03-11T06:57:39;98580.19;;;8.32;100.00
29467;BME280;60968;37.490;-122.288;2023-03-11T07:00:40;98591.47;;;8.31;100.00
29467;BME280;60968;37.490;-122.288;2023-03-11T07:03:41;98583.69;;;8.28;100.00
29467;BME280;60968;37.490;-122.288;2023-03-11T07:06:42;98578.47;;;8.31;100.00
29467;BME280;60968;37.490;-122.288;2023-03-11T07:09:46;98581.06;;;8.33;100.00
29467;BME280;60968;37.490;-122.288;2023-03-11T07:12:46;98585.38;;;8.32;100.00
29467;BME280;60968;37.490;-122.288;2023-03-11T07:15:47;98592.25;;;8.36;100.00
29467;BME280;60968;37.490;-122.288;2023-03-11T07:18:50;98597.41;;;8.39;100.00
29467;BME280;60968;37.490;-122.288;2023-03-11T07:21:51;98595.66;;;8.41;100.00
29467;BME280;60968;37.490;-122.288;2023-03-11T07:24:55;98593.94;;;8.40;100.00
29467;BME280;60968;37.490;-122.288;2023-03-11T07:27:56;98590.53;;;8.34;100.00
29467;BME280;60968;37.490;-122.288;2023-03-11T07:30:57;98586.38;;;8.22;100.00
29467;BME280;60968;37.490;-122.288;2023-03-11T07:34:00;98592.50;;;8.15;100.00
29467;BME280;60968;37.490;-122.288;2023-03-11T07:37:02;98593.38;;;8.14;100.00
29467;BME280;60968;37.490;-122.288;2023-03-11T07:40:03;98598.53;;;8.15;100.00
29467;BME280;60968;37.490;-122.288;2023-03-11T07:43:04;98596.81;;;8.14;100.00
29467;BME280;60968;37.490;-122.288;2023-03-11T07:49:25;98595.81;;;8.28;100.00
29467;BME280;60968;37.490;-122.288;2023-03-11T07:52:29;98593.19;;;8.31;100.00
29467;BME280;60968;37.490;-122.288;2023-03-11T07:55:32;98594.06;;;8.31;100.00
29467;BME280;60968;37.490;-122.288;2023-03-11T07:58:33;98589.63;;;8.38;100.00
29467;BME280;60968;37.490;-122.288;2023-03-11T08:01:34;98602.59;;;8.39;100.00
29467;BME280;60968;37.490;-122.288;2023-03-11T08:04:35;98604.28;;;8.45;100.00
29467;BME280;60968;37.490;-122.288;2023-03-11T08:07:36;98596.50;;;8.42;100.00
29467;BME280;60968;37.490;-122.288;2023-03-11T08:10:37;98593.06;;;8.45;100.00
29467;BME280;60968;37.490;-122.288;2023-03-11T08:13:40;98602.56;;;8.46;100.00
29467;BME280;60968;37.490;-122.288;2023-03-11T08:16:41;98601.69;;;8.45;100.00
29467;BME280;60968;37.490;-122.288;2023-03-11T08:19:42;98602.56;;;8.46;100.00
29467;BME280;60968;37.490;-122.288;2023-03-11T08:22:43;98600.91;;;8.38;100.00
29467;BME280;60968;37.490;-122.288;2023-03-11T08:25:44;98604.34;;;8.39;100.00
29467;BME280;60968;37.490;-122.288;2023-03-11T08:28:47;98607.75;;;8.46;100.00
29467;BME280;60968;37.490;-122.288;2023-03-11T08:31:48;98609.47;;;8.44;100.00
29467;BME280;60968;37.490;-122.288;2023-03-11T08:34:48;98602.56;;;8.46;100.00
29467;BME280;60968;37.490;-122.288;2023-03-11T08:37:49;98610.38;;;8.39;100.00
29467;BME280;60968;37.490;-122.288;2023-03-11T08:40:50;98604.28;;;8.42;100.00
29467;BME280;60968;37.490;-122.288;2023-03-11T08:43:51;98607.81;;;8.36;100.00
29467;BME280;60968;37.490;-122.288;2023-03-11T08:46:52;98612.09;;;8.40;100.00
29467;BME280;60968;37.490;-122.288;2023-03-11T08:49:53;98608.69;;;8.38;100.00
29467;BME280;60968;37.490;-122.288;2023-03-11T08:52:56;98612.97;;;8.43;100.00
29467;BME280;60968;37.490;-122.288;2023-03-11T08:55:57;98609.56;;;8.36;100.00
29467;BME280;60968;37.490;-122.288;2023-03-11T08:58:58;98607.88;;;8.33;100.00
29467;BME280;60968;37.490;-122.288;2023-03-11T09:01:59;98612.19;;;8.34;100.00
29467;BME280;60968;37.490;-122.288;2023-03-11T09:05:00;98615.75;;;8.26;100.00
29467;BME280;60968;37.490;-122.288;2023-03-11T09:08:01;98620.06;;;8.25;100.00
29467;BME280;60968;37.490;-122.288;2023-03-11T09:11:02;98616.59;;;8.28;100.00
29467;BME280;60968;37.490;-122.288;2023-03-11T09:14:04;98614.84;;;8.28;100.00
29467;BME280;60968;37.490;-122.288;2023-03-11T09:17:05;98626.16;;;8.21;100.00
29467;BME280;60968;37.490;-122.288;2023-03-11T09:20:07;98625.34;;;8.17;100.00
29467;BME280;60968;37.490;-122.288;2023-03-11T09:23:10;98629.66;;;8.17;100.00
29467;BME280;60968;37.490;-122.288;2023-03-11T09:26:11;98627.88;;;8.23;100.00
29467;BME280;60968;37.490;-122.288;2023-03-11T09:29:14;98621.84;;;8.23;100.00
29467;BME280;60968;37.490;-122.288;2023-03-11T09:32:15;98620.16;;;8.17;100.00
29467;BME280;60968;37.490;-122.288;2023-03-11T09:35:16;98619.25;;;8.18;100.00
29467;BME280;60968;37.490;-122.288;2023-03-11T09:38:17;98625.34;;;8.19;100.00
29467;BME280;60968;37.490;-122.288;2023-03-11T09:41:21;98627.06;;;8.20;100.00
29467;BME280;60968;37.490;-122.288;2023-03-11T09:50:46;98634.84;;;8.17;100.00
29467;BME280;60968;37.490;-122.288;2023-03-11T09:54:03;98629.72;;;8.12;100.00
29467;BME280;60968;37.490;-122.288;2023-03-11T09:57:05;98635.81;;;8.10;100.00
29467;BME280;60968;37.490;-122.288;2023-03-11T10:00:12;98631.50;;;8.05;100.00
29467;BME280;60968;37.490;-122.288;2023-03-11T10:03:31;98626.34;;;8.04;100.00
29467;BME280;60968;37.490;-122.288;2023-03-11T10:06:32;98630.69;;;8.03;100.00
29467;BME280;60968;37.490;-122.288;2023-03-11T10:09:50;98627.22;;;8.04;100.00
29467;BME280;60968;37.490;-122.288;2023-03-11T10:13:08;98621.13;;;8.07;100.00
29467;BME280;60968;37.490;-122.288;2023-03-11T10:16:27;98617.72;;;8.02;100.00
29467;BME280;60968;37.490;-122.288;2023-03-11T10:20:05;98601.31;;;8.00;100.00
29467;BME280;60968;37.490;-122.288;2023-03-11T10:26:22;98596.28;;;7.84;100.00
29467;BME280;60968;37.490;-122.288;2023-03-11T10:29:30;98598.09;;;7.73;100.00
29467;BME280;60968;37.490;-122.288;2023-03-11T10:32:49;98601.66;;;7.63;100.00
29467;BME280;60968;37.490;-122.288;2023-03-11T10:35:54;98606.03;;;7.58;100.00
29467;BME280;60968;37.490;-122.288;2023-03-11T10:38:56;98601.75;;;7.52;100.00
29467;BME280;60968;37.490;-122.288;2023-03-11T10:42:00;98606.97;;;7.47;100.00
29467;BME280;60968;37.490;-122.288;2023-03-11T10:45:02;98602.63;;;7.49;100.00
29467;BME280;60968;37.490;-122.288;2023-03-11T10:48:18;98603.47;;;7.53;100.00
29467;BME280;60968;37.490;-122.288;2023-03-11T10:51:39;98583.56;;;7.56;100.00
29467;BME280;60968;37.490;-122.288;2023-03-11T10:54:46;98580.97;;;7.56;100.00
29467;BME280;60968;37.490;-122.288;2023-03-11T10:57:47;98576.66;;;7.55;100.00
29467;BME280;60968;37.490;-122.288;2023-03-11T11:01:14;98576.66;;;7.57;100.00
29467;BME280;60968;37.490;-122.288;2023-03-11T11:04:38;98578.38;;;7.56;100.00
29467;BME280;60968;37.490;-122.288;2023-03-11T11:07:39;98578.41;;;7.52;100.00
29467;BME280;60968;37.490;-122.288;2023-03-11T11:10:51;98572.38;;;7.53;100.00
29467;BME280;60968;37.490;-122.288;2023-03-11T11:13:58;98565.41;;;7.55;100.00
29467;BME280;60968;37.490;-122.288;2023-03-11T11:16:59;98571.44;;;7.59;100.00
29467;BME280;60968;37.490;-122.288;2023-03-11T11:20:01;98569.75;;;7.54;100.00
29467;BME280;60968;37.490;-122.288;2023-03-11T11:23:03;98573.19;;;7.55;100.00
29467;BME280;60968;37.490;-122.288;2023-03-11T11:26:13;98567.19;;;7.53;100.00
29467;BME280;60968;37.490;-122.288;2023-03-11T11:29:15;98567.25;;;7.47;100.00
29467;BME280;60968;37.490;-122.288;2023-03-11T11:32:25;98569.81;;;7.45;100.00
29467;BME280;60968;37.490;-122.288;2023-03-11T11:35:26;98573.31;;;7.44;100.00
29467;BME280;60968;37.490;-122.288;2023-03-11T11:38:28;98576.69;;;7.49;100.00
29467;BME280;60968;37.490;-122.288;2023-03-11T11:41:31;98573.22;;;7.53;100.00
29467;BME280;60968;37.490;-122.288;2023-03-11T11:44:35;98573.19;;;7.56;100.00
29467;BME280;60968;37.490;-122.288;2023-03-11T11:47:42;98562.81;;;7.60;100.00
29467;BME280;60968;37.490;-122.288;2023-03-11T11:50:50;98569.66;;;7.62;100.00
29467;BME280;60968;37.490;-122.288;2023-03-11T11:54:19;98557.59;;;7.61;100.00
29467;BME280;60968;37.490;-122.288;2023-03-11T11:57:20;98551.53;;;7.61;100.00
29467;BME280;60968;37.490;-122.288;2023-03-11T12:00:29;98549.03;;;7.53;100.00
29467;BME280;60968;37.490;-122.288;2023-03-11T12:04:04;98544.75;;;7.49;100.00
29467;BME280;60968;37.490;-122.288;2023-03-11T12:07:18;98551.69;;;7.47;100.00
29467;BME280;60968;37.490;-122.288;2023-03-11T12:11:21;98549.97;;;7.46;100.00
29467;BME280;60968;37.490;-122.288;2023-03-11T12:17:17;98553.38;;;7.48;100.00
29467;BME280;60968;37.490;-122.288;2023-03-11T12:20:32;98558.53;;;7.51;100.00
29467;BME280;60968;37.490;-122.288;2023-03-11T12:24:25;98554.25;;;7.50;100.00
29467;BME280;60968;37.490;-122.288;2023-03-11T12:31:02;98548.19;;;7.48;100.00
29467;BME280;60968;37.490;-122.288;2023-03-11T12:34:08;98553.38;;;7.48;100.00
29467;BME280;60968;37.490;-122.288;2023-03-11T12:37:14;98555.97;;;7.49;100.00
29467;BME280;60968;37.490;-122.288;2023-03-11T12:43:59;98569.84;;;7.44;100.00
29467;BME280;60968;37.490;-122.288;2023-03-11T12:50:40;98572.47;;;7.41;100.00
29467;BME280;60968;37.490;-122.288;2023-03-11T12:53:46;98578.50;;;7.44;100.00
29467;BME280;60968;37.490;-122.288;2023-03-11T13:03:51;98572.25;;;7.65;100.00
29467;BME280;60968;37.490;-122.288;2023-03-11T13:13:38;98567.97;;;7.61;100.00
29467;BME280;60968;37.490;-122.288;2023-03-11T13:16:40;98571.44;;;7.60;100.00
29467;BME280;60968;37.490;-122.288;2023-03-11T13:19:53;98563.66;;;7.60;100.00
29467;BME280;60968;37.490;-122.288;2023-03-11T13:33:11;98580.84;;;7.69;100.00
29467;BME280;60968;37.490;-122.288;2023-03-11T13:36:12;98575.66;;;7.73;100.00
29467;BME280;60968;37.490;-122.288;2023-03-11T13:42:49;98592.88;;;7.78;100.00
29467;BME280;60968;37.490;-122.288;2023-03-11T13:46:10;98584.25;;;7.77;100.00
29467;BME280;60968;37.490;-122.288;2023-03-11T13:52:46;98587.00;;;7.60;100.00
29467;BME280;60968;37.490;-122.288;2023-03-11T13:55:49;98593.09;;;7.53;100.00
29467;BME280;60968;37.490;-122.288;2023-03-11T13:58:50;98584.50;;;7.48;100.00
29467;BME280;60968;37.490;-122.288;2023-03-11T14:02:12;98586.22;;;7.49;100.00
29467;BME280;60968;37.490;-122.288;2023-03-11T14:05:18;98587.91;;;7.53;100.00
29467;BME280;60968;37.490;-122.288;2023-03-11T14:08:31;98582.69;;;7.56;100.00
29467;BME280;60968;37.490;-122.288;2023-03-11T14:11:33;98586.16;;;7.55;100.00
29467;BME280;60968;37.490;-122.288;2023-03-11T14:18:34;98582.63;;;7.65;100.00
29467;BME280;60968;37.490;-122.288;2023-03-11T14:21:35;98575.66;;;7.70;100.00
29467;BME280;60968;37.490;-122.288;2023-03-11T14:24:37;98590.28;;;7.76;100.00
29467;BME280;60968;37.490;-122.288;2023-03-11T14:27:38;98591.13;;;7.80;100.00
29467;BME280;60968;37.490;-122.288;2023-03-11T14:30:54;98597.97;;;7.87;100.00
29467;BME280;60968;37.490;-122.288;2023-03-11T14:34:41;98597.91;;;7.93;100.00
29467;BME280;60968;37.490;-122.288;2023-03-11T14:40:34;98595.28;;;7.98;100.00
29467;BME280;60968;37.490;-122.288;2023-03-11T14:43:39;98595.25;;;7.99;100.00
29467;BME280;60968;37.490;-122.288;2023-03-11T14:46:42;98608.13;;;8.07;100.00
29467;BME280;60968;37.490;-122.288;2023-03-11T14:49:43;98601.19;;;8.11;100.00
29467;BME280;60968;37.490;-122.288;2023-03-11T14:52:57;98602.88;;;8.15;100.00
29467;BME280;60968;37.490;-122.288;2023-03-11T14:56:03;98601.03;;;8.26;100.00
29467;BME280;60968;37.490;-122.288;2023-03-11T14:59:22;98604.34;;;8.37;100.00
29467;BME280;60968;37.490;-122.288;2023-03-11T15:05:53;98614.41;;;8.68;100.00
29467;BME280;60968;37.490;-122.288;2023-03-11T15:08:58;98615.94;;;8.85;100.00
29467;BME280;60968;37.490;-122.288;2023-03-11T15:12:04;98618.34;;;8.96;100.00
29467;BME280;60968;37.490;-122.288;2023-03-11T15:15:27;98621.75;;;9.02;100.00
29467;BME280;60968;37.490;-122.288;2023-03-11T15:18:31;98627.72;;;9.09;100.00
29467;BME280;60968;37.490;-122.288;2023-03-11T15:21:32;98634.56;;;9.15;100.00
29467;BME280;60968;37.490;-122.288;2023-03-11T15:24:34;98634.59;;;9.13;100.00
29467;BME280;60968;37.490;-122.288;2023-03-11T15:27:37;98640.59;;;9.15;100.00
29467;BME280;60968;37.490;-122.288;2023-03-11T15:30:39;98635.56;;;9.06;100.00
29467;BME280;60968;37.490;-122.288;2023-03-11T15:33:40;98642.47;;;9.07;100.00
29467;BME280;60968;37.490;-122.288;2023-03-11T15:36:53;98645.84;;;9.14;100.00
29467;BME280;60968;37.490;-122.288;2023-03-11T15:40:10;98646.72;;;9.14;100.00
29467;BME280;60968;37.490;-122.288;2023-03-11T15:43:20;98648.47;;;9.10;100.00
29467;BME280;60968;37.490;-122.288;2023-03-11T15:46:23;98659.69;;;9.16;100.00
29467;BME280;60968;37.490;-122.288;2023-03-11T15:49:24;98659.69;;;9.16;100.00
29467;BME280;60968;37.490;-122.288;2023-03-11T15:52:25;98663.88;;;9.24;100.00
29467;BME280;60968;37.490;-122.288;2023-03-11T15:55:27;98667.13;;;9.40;100.00
29467;BME280;60968;37.490;-122.288;2023-03-11T15:58:29;98667.84;;;9.49;100.00
29467;BME280;60968;37.490;-122.288;2023-03-11T16:01:30;98664.34;;;9.53;100.00
29467;BME280;60968;37.490;-122.288;2023-03-11T16:04:31;98664.19;;;9.60;100.00
29467;BME280;60968;37.490;-122.288;2023-03-11T16:07:34;98661.28;;;9.81;100.00
29467;BME280;60968;37.490;-122.288;2023-03-11T16:10:37;98666.25;;;9.96;100.00
29467;BME280;60968;37.490;-122.288;2023-03-11T16:13:38;98653.06;;;10.04;100.00
29467;BME280;60968;37.490;-122.288;2023-03-11T16:16:39;98652.16;;;10.06;100.00
29467;BME280;60968;37.490;-122.288;2023-03-11T16:19:41;98638.00;;;10.23;100.00
29467;BME280;60968;37.490;-122.288;2023-03-11T16:22:42;98642.38;;;10.19;100.00
29467;BME280;60968;37.490;-122.288;2023-03-11T16:25:43;98635.44;;;10.18;100.00
29467;BME280;60968;37.490;-122.288;2023-03-11T16:28:44;98635.22;;;10.30;100.00
29467;BME280;60968;37.490;-122.288;2023-03-11T16:31:46;98636.19;;;10.26;100.00
29467;BME280;60968;37.490;-122.288;2023-03-11T16:34:47;98641.41;;;10.25;100.00
29467;BME280;60968;37.490;-122.288;2023-03-11T16:37:48;98637.63;;;10.43;100.00
29467;BME280;60968;37.490;-122.288;2023-03-11T16:40:59;98633.97;;;10.52;100.00
29467;BME280;60968;37.490;-122.288;2023-03-11T16:44:00;98635.47;;;10.65;100.00
29467;BME280;60968;37.490;-122.288;2023-03-11T16:47:01;98629.84;;;10.85;100.00
29467;BME280;60968;37.490;-122.288;2023-03-11T16:50:02;98637.06;;;11.13;100.00